IAD weather

Washington Dulles International Airport
Washington, District of Columbia, United States

Public forecast

Using degrees Fahrenheit for public forecast. Weather courtesy of forecast.io.

METAR (pilot weather report)

Retrieved 2017/05/28 22:52 UTC (1 hour ago):

KIAD 282252Z 06004KT 10SM BKN008 OVC025 19/17 A2984 RMK AO2 SLP103 T01890172

TAF (pilot weather forecast)

Forecast is more than 12 hours old.

Retrieved 2017/05/28 06:33 UTC (17 hours ago):

TAF KIAD 280531Z 2806/2912 VRB03KT P6SM FEW060 SCT100 FM280900 VRB03KT 5SM BR BKN003 FM281200 VRB03KT 5SM BR BKN015 FM281300 08004KT P6SM BKN015 FM281600 13006KT P6SM BKN020 FM290000 14007KT P6SM -SHRA OVC025 FM290600 15005KT P6SM BKN015 FM291100 21004KT P6SM BKN090